sensor_id;sensor_type;location;lat;lon;timestamp;temperature;humidity
40758;DHT22;26462;47.384;19.218;2022-07-17T00:01:06;21.50;53.30
40758;DHT22;26462;47.384;19.218;2022-07-17T00:03:34;21.50;53.60
40758;DHT22;26462;47.384;19.218;2022-07-17T00:06:01;21.50;54.50
40758;DHT22;26462;47.384;19.218;2022-07-17T00:08:28;21.50;54.60
40758;DHT22;26462;47.384;19.218;2022-07-17T00:10:58;21.40;55.60
40758;DHT22;26462;47.384;19.218;2022-07-17T00:13:25;21.40;55.40
40758;DHT22;26462;47.384;19.218;2022-07-17T00:15:52;21.30;56.20
40758;DHT22;26462;47.384;19.218;2022-07-17T00:18:19;21.30;56.30
40758;DHT22;26462;47.384;19.218;2022-07-17T00:20:47;21.20;56.60
40758;DHT22;26462;47.384;19.218;2022-07-17T00:23:14;21.20;56.70
40758;DHT22;26462;47.384;19.218;2022-07-17T00:25:41;21.10;55.40
40758;DHT22;26462;47.384;19.218;2022-07-17T00:28:08;21.10;55.90
40758;DHT22;26462;47.384;19.218;2022-07-17T00:30:35;21.10;56.50
40758;DHT22;26462;47.384;19.218;2022-07-17T00:33:03;21.00;56.50
40758;DHT22;26462;47.384;19.218;2022-07-17T00:35:30;20.90;57.00
40758;DHT22;26462;47.384;19.218;2022-07-17T00:37:57;20.90;57.40
40758;DHT22;26462;47.384;19.218;2022-07-17T00:40:24;20.90;57.20
40758;DHT22;26462;47.384;19.218;2022-07-17T00:42:52;20.80;57.30
40758;DHT22;26462;47.384;19.218;2022-07-17T00:45:19;20.70;57.50
40758;DHT22;26462;47.384;19.218;2022-07-17T00:47:58;20.70;57.70
40758;DHT22;26462;47.384;19.218;2022-07-17T00:50:31;20.60;58.10
40758;DHT22;26462;47.384;19.218;2022-07-17T00:52:58;20.50;58.10
40758;DHT22;26462;47.384;19.218;2022-07-17T00:55:26;20.50;58.40
40758;DHT22;26462;47.384;19.218;2022-07-17T00:58:21;20.50;59.30
40758;DHT22;26462;47.384;19.218;2022-07-17T01:00:50;20.40;59.30
40758;DHT22;26462;47.384;19.218;2022-07-17T01:03:21;20.30;58.80
40758;DHT22;26462;47.384;19.218;2022-07-17T01:05:48;20.30;58.70
40758;DHT22;26462;47.384;19.218;2022-07-17T01:08:17;20.20;59.20
40758;DHT22;26462;47.384;19.218;2022-07-17T01:10:44;20.20;60.30
40758;DHT22;26462;47.384;19.218;2022-07-17T01:13:11;20.10;59.70
40758;DHT22;26462;47.384;19.218;2022-07-17T01:15:40;20.00;59.90
40758;DHT22;26462;47.384;19.218;2022-07-17T01:18:10;20.00;59.80
40758;DHT22;26462;47.384;19.218;2022-07-17T01:20:40;20.00;59.70
40758;DHT22;26462;47.384;19.218;2022-07-17T01:23:09;19.90;59.80
40758;DHT22;26462;47.384;19.218;2022-07-17T01:25:36;19.80;60.30
40758;DHT22;26462;47.384;19.218;2022-07-17T01:28:04;19.80;61.60
40758;DHT22;26462;47.384;19.218;2022-07-17T01:30:32;19.80;62.10
40758;DHT22;26462;47.384;19.218;2022-07-17T01:33:00;19.70;62.50
40758;DHT22;26462;47.384;19.218;2022-07-17T01:35:28;19.70;63.10
40758;DHT22;26462;47.384;19.218;2022-07-17T01:37:55;19.60;62.80
40758;DHT22;26462;47.384;19.218;2022-07-17T01:40:22;19.60;63.00
40758;DHT22;26462;47.384;19.218;2022-07-17T01:42:49;19.60;63.60
40758;DHT22;26462;47.384;19.218;2022-07-17T01:45:18;19.60;63.60
40758;DHT22;26462;47.384;19.218;2022-07-17T01:47:47;19.60;64.10
40758;DHT22;26462;47.384;19.218;2022-07-17T01:50:15;19.60;64.40
40758;DHT22;26462;47.384;19.218;2022-07-17T01:52:43;19.50;64.40
40758;DHT22;26462;47.384;19.218;2022-07-17T01:55:13;19.50;65.00
40758;DHT22;26462;47.384;19.218;2022-07-17T01:57:41;19.40;65.10
40758;DHT22;26462;47.384;19.218;2022-07-17T02:00:12;19.40;64.90
40758;DHT22;26462;47.384;19.218;2022-07-17T02:02:41;19.30;64.60
40758;DHT22;26462;47.384;19.218;2022-07-17T02:05:08;19.40;64.40
40758;DHT22;26462;47.384;19.218;2022-07-17T02:07:35;19.30;64.70
40758;DHT22;26462;47.384;19.218;2022-07-17T02:10:08;19.20;65.30
40758;DHT22;26462;47.384;19.218;2022-07-17T02:12:35;19.10;65.60
40758;DHT22;26462;47.384;19.218;2022-07-17T02:15:04;19.20;65.70
40758;DHT22;26462;47.384;19.218;2022-07-17T02:17:31;19.00;65.80
40758;DHT22;26462;47.384;19.218;2022-07-17T02:19:58;18.90;65.70
40758;DHT22;26462;47.384;19.218;2022-07-17T02:22:26;18.90;65.50
40758;DHT22;26462;47.384;19.218;2022-07-17T02:24:53;18.80;66.10
40758;DHT22;26462;47.384;19.218;2022-07-17T02:27:20;18.80;66.10
40758;DHT22;26462;47.384;19.218;2022-07-17T02:29:47;18.80;65.50
40758;DHT22;26462;47.384;19.218;2022-07-17T02:32:14;18.80;66.00
40758;DHT22;26462;47.384;19.218;2022-07-17T02:34:41;18.60;66.40
40758;DHT22;26462;47.384;19.218;2022-07-17T02:37:08;18.60;66.30
40758;DHT22;26462;47.384;19.218;2022-07-17T02:39:37;18.70;65.60
40758;DHT22;26462;47.384;19.218;2022-07-17T02:42:24;18.70;65.90
40758;DHT22;26462;47.384;19.218;2022-07-17T02:44:52;18.60;65.50
40758;DHT22;26462;47.384;19.218;2022-07-17T02:47:31;18.60;65.60
40758;DHT22;26462;47.384;19.218;2022-07-17T02:49:59;18.50;65.80
40758;DHT22;26462;47.384;19.218;2022-07-17T02:52:28;18.50;66.10
40758;DHT22;26462;47.384;19.218;2022-07-17T02:54:55;18.40;66.10
40758;DHT22;26462;47.384;19.218;2022-07-17T02:57:22;18.40;66.40
40758;DHT22;26462;47.384;19.218;2022-07-17T02:59:49;18.40;66.70
40758;DHT22;26462;47.384;19.218;2022-07-17T03:02:16;18.30;67.30
40758;DHT22;26462;47.384;19.218;2022-07-17T03:04:44;18.30;67.00
40758;DHT22;26462;47.384;19.218;2022-07-17T03:07:11;18.30;66.70
40758;DHT22;26462;47.384;19.218;2022-07-17T03:09:38;18.20;66.80
40758;DHT22;26462;47.384;19.218;2022-07-17T03:12:06;18.20;66.70
40758;DHT22;26462;47.384;19.218;2022-07-17T03:14:33;18.10;66.50
40758;DHT22;26462;47.384;19.218;2022-07-17T03:17:00;18.10;66.50
40758;DHT22;26462;47.384;19.218;2022-07-17T03:19:27;18.10;66.60
40758;DHT22;26462;47.384;19.218;2022-07-17T03:21:54;18.10;66.80
40758;DHT22;26462;47.384;19.218;2022-07-17T03:24:21;18.00;66.70
40758;DHT22;26462;47.384;19.218;2022-07-17T03:26:49;18.00;67.30
40758;DHT22;26462;47.384;19.218;2022-07-17T03:29:16;17.90;67.90
40758;DHT22;26462;47.384;19.218;2022-07-17T03:31:46;17.90;68.50
40758;DHT22;26462;47.384;19.218;2022-07-17T03:34:14;17.90;69.10
40758;DHT22;26462;47.384;19.218;2022-07-17T03:36:41;17.90;69.90
40758;DHT22;26462;47.384;19.218;2022-07-17T03:39:08;17.90;70.20
40758;DHT22;26462;47.384;19.218;2022-07-17T03:41:36;17.90;70.80
40758;DHT22;26462;47.384;19.218;2022-07-17T03:44:03;17.90;71.30
40758;DHT22;26462;47.384;19.218;2022-07-17T03:46:31;17.80;71.70
40758;DHT22;26462;47.384;19.218;2022-07-17T03:48:58;17.80;71.10
40758;DHT22;26462;47.384;19.218;2022-07-17T03:51:25;17.80;70.30
40758;DHT22;26462;47.384;19.218;2022-07-17T03:53:53;17.90;70.80
40758;DHT22;26462;47.384;19.218;2022-07-17T03:56:20;17.90;70.10
40758;DHT22;26462;47.384;19.218;2022-07-17T03:58:47;17.80;69.60
40758;DHT22;26462;47.384;19.218;2022-07-17T04:01:15;17.80;69.40
40758;DHT22;26462;47.384;19.218;2022-07-17T04:03:42;18.00;70.40
40758;DHT22;26462;47.384;19.218;2022-07-17T04:06:09;18.00;69.50
40758;DHT22;26462;47.384;19.218;2022-07-17T04:08:36;18.10;69.40
40758;DHT22;26462;47.384;19.218;2022-07-17T04:11:03;18.20;69.20
40758;DHT22;26462;47.384;19.218;2022-07-17T04:13:37;18.20;68.70
40758;DHT22;26462;47.384;19.218;2022-07-17T04:16:04;18.30;68.30
40758;DHT22;26462;47.384;19.218;2022-07-17T04:18:34;18.30;67.00
40758;DHT22;26462;47.384;19.218;2022-07-17T04:21:06;18.40;66.10
40758;DHT22;26462;47.384;19.218;2022-07-17T04:23:34;18.50;65.80
40758;DHT22;26462;47.384;19.218;2022-07-17T04:26:02;18.60;65.80
40758;DHT22;26462;47.384;19.218;2022-07-17T04:28:37;18.70;65.20
40758;DHT22;26462;47.384;19.218;2022-07-17T04:31:04;18.70;65.10
40758;DHT22;26462;47.384;19.218;2022-07-17T04:33:31;18.80;65.10
40758;DHT22;26462;47.384;19.218;2022-07-17T04:35:58;18.80;64.60
40758;DHT22;26462;47.384;19.218;2022-07-17T04:38:25;18.90;64.40
40758;DHT22;26462;47.384;19.218;2022-07-17T04:40:52;19.00;64.20
40758;DHT22;26462;47.384;19.218;2022-07-17T04:43:20;19.10;64.00
40758;DHT22;26462;47.384;19.218;2022-07-17T04:45:47;19.10;63.70
40758;DHT22;26462;47.384;19.218;2022-07-17T04:48:14;19.20;63.60
40758;DHT22;26462;47.384;19.218;2022-07-17T04:50:41;19.30;63.00
40758;DHT22;26462;47.384;19.218;2022-07-17T04:53:08;19.30;62.20
40758;DHT22;26462;47.384;19.218;2022-07-17T04:55:35;19.30;62.00
40758;DHT22;26462;47.384;19.218;2022-07-17T04:58:03;19.40;61.60
40758;DHT22;26462;47.384;19.218;2022-07-17T05:00:30;19.50;61.10
40758;DHT22;26462;47.384;19.218;2022-07-17T05:02:58;19.60;60.80
40758;DHT22;26462;47.384;19.218;2022-07-17T05:05:25;19.80;60.50
40758;DHT22;26462;47.384;19.218;2022-07-17T05:07:52;19.80;59.30
40758;DHT22;26462;47.384;19.218;2022-07-17T05:10:20;20.00;59.30
40758;DHT22;26462;47.384;19.218;2022-07-17T05:12:53;20.00;58.40
40758;DHT22;26462;47.384;19.218;2022-07-17T05:15:20;20.20;58.70
40758;DHT22;26462;47.384;19.218;2022-07-17T05:17:47;20.40;57.80
40758;DHT22;26462;47.384;19.218;2022-07-17T05:20:15;20.40;56.30
40758;DHT22;26462;47.384;19.218;2022-07-17T05:22:42;20.50;55.70
40758;DHT22;26462;47.384;19.218;2022-07-17T05:25:09;20.70;56.00
40758;DHT22;26462;47.384;19.218;2022-07-17T05:27:36;20.80;55.00
40758;DHT22;26462;47.384;19.218;2022-07-17T05:30:04;21.10;55.20
40758;DHT22;26462;47.384;19.218;2022-07-17T05:32:31;21.10;54.00
40758;DHT22;26462;47.384;19.218;2022-07-17T05:34:58;21.20;53.50
40758;DHT22;26462;47.384;19.218;2022-07-17T05:37:25;21.30;53.90
40758;DHT22;26462;47.384;19.218;2022-07-17T05:39:52;21.40;53.30
40758;DHT22;26462;47.384;19.218;2022-07-17T05:42:19;21.40;53.40
40758;DHT22;26462;47.384;19.218;2022-07-17T05:44:46;21.30;52.40
40758;DHT22;26462;47.384;19.218;2022-07-17T05:47:13;21.20;52.80
40758;DHT22;26462;47.384;19.218;2022-07-17T05:49:41;21.40;52.60
40758;DHT22;26462;47.384;19.218;2022-07-17T05:52:08;21.80;52.90
40758;DHT22;26462;47.384;19.218;2022-07-17T05:54:35;21.90;52.10
40758;DHT22;26462;47.384;19.218;2022-07-17T05:57:02;22.00;51.40
40758;DHT22;26462;47.384;19.218;2022-07-17T05:59:36;21.90;51.20
40758;DHT22;26462;47.384;19.218;2022-07-17T06:02:03;21.90;50.80
40758;DHT22;26462;47.384;19.218;2022-07-17T06:04:30;21.70;50.30
40758;DHT22;26462;47.384;19.218;2022-07-17T06:06:57;21.90;50.30
40758;DHT22;26462;47.384;19.218;2022-07-17T06:09:25;21.80;50.00
40758;DHT22;26462;47.384;19.218;2022-07-17T06:11:52;22.00;50.00
40758;DHT22;26462;47.384;19.218;2022-07-17T06:14:19;22.20;50.00
40758;DHT22;26462;47.384;19.218;2022-07-17T06:16:46;22.60;49.90
40758;DHT22;26462;47.384;19.218;2022-07-17T06:19:13;22.30;48.70
40758;DHT22;26462;47.384;19.218;2022-07-17T06:21:40;22.20;49.60
40758;DHT22;26462;47.384;19.218;2022-07-17T06:24:07;22.10;49.70
40758;DHT22;26462;47.384;19.218;2022-07-17T06:26:34;22.30;48.80
40758;DHT22;26462;47.384;19.218;2022-07-17T06:29:02;22.70;49.20
40758;DHT22;26462;47.384;19.218;2022-07-17T06:31:29;22.60;48.40
40758;DHT22;26462;47.384;19.218;2022-07-17T06:33:57;22.60;48.90
40758;DHT22;26462;47.384;19.218;2022-07-17T06:36:24;22.80;48.50
40758;DHT22;26462;47.384;19.218;2022-07-17T06:38:51;22.90;48.50
40758;DHT22;26462;47.384;19.218;2022-07-17T06:41:18;23.20;47.90
40758;DHT22;26462;47.384;19.218;2022-07-17T06:43:46;23.00;48.00
40758;DHT22;26462;47.384;19.218;2022-07-17T06:46:13;22.70;47.30
40758;DHT22;26462;47.384;19.218;2022-07-17T06:48:40;22.60;47.20
40758;DHT22;26462;47.384;19.218;2022-07-17T06:51:07;23.10;47.80
40758;DHT22;26462;47.384;19.218;2022-07-17T06:53:34;23.30;46.90
40758;DHT22;26462;47.384;19.218;2022-07-17T06:56:01;22.70;46.80
40758;DHT22;26462;47.384;19.218;2022-07-17T06:58:29;22.80;47.60
40758;DHT22;26462;47.384;19.218;2022-07-17T07:00:56;22.90;46.70
40758;DHT22;26462;47.384;19.218;2022-07-17T07:03:23;23.20;47.50
40758;DHT22;26462;47.384;19.218;2022-07-17T07:05:50;23.60;46.40
40758;DHT22;26462;47.384;19.218;2022-07-17T07:08:17;23.20;44.70
40758;DHT22;26462;47.384;19.218;2022-07-17T07:10:44;23.10;45.60
40758;DHT22;26462;47.384;19.218;2022-07-17T07:13:12;23.40;45.30
40758;DHT22;26462;47.384;19.218;2022-07-17T07:15:39;23.60;44.50
40758;DHT22;26462;47.384;19.218;2022-07-17T07:18:06;23.90;43.60
40758;DHT22;26462;47.384;19.218;2022-07-17T07:20:33;23.70;43.90
40758;DHT22;26462;47.384;19.218;2022-07-17T07:23:00;23.80;44.40
40758;DHT22;26462;47.384;19.218;2022-07-17T07:25:33;23.70;43.50
40758;DHT22;26462;47.384;19.218;2022-07-17T07:28:04;23.60;43.10
40758;DHT22;26462;47.384;19.218;2022-07-17T07:30:32;23.80;43.30
40758;DHT22;26462;47.384;19.218;2022-07-17T07:32:59;24.10;43.00
40758;DHT22;26462;47.384;19.218;2022-07-17T07:35:26;24.20;42.90
40758;DHT22;26462;47.384;19.218;2022-07-17T07:37:54;23.80;42.00
40758;DHT22;26462;47.384;19.218;2022-07-17T07:40:21;24.10;43.00
40758;DHT22;26462;47.384;19.218;2022-07-17T07:42:48;24.30;43.00
40758;DHT22;26462;47.384;19.218;2022-07-17T07:45:15;24.10;41.90
40758;DHT22;26462;47.384;19.218;2022-07-17T07:47:44;24.20;42.10
40758;DHT22;26462;47.384;19.218;2022-07-17T07:50:13;24.40;42.50
40758;DHT22;26462;47.384;19.218;2022-07-17T07:52:40;24.10;42.20
40758;DHT22;26462;47.384;19.218;2022-07-17T07:55:09;23.70;42.50
40758;DHT22;26462;47.384;19.218;2022-07-17T07:57:45;24.10;43.20
40758;DHT22;26462;47.384;19.218;2022-07-17T08:00:13;24.10;42.80
40758;DHT22;26462;47.384;19.218;2022-07-17T08:02:40;24.30;42.30
40758;DHT22;26462;47.384;19.218;2022-07-17T08:05:08;24.20;42.40
40758;DHT22;26462;47.384;19.218;2022-07-17T08:07:36;24.10;43.00
40758;DHT22;26462;47.384;19.218;2022-07-17T08:10:04;24.50;42.90
40758;DHT22;26462;47.384;19.218;2022-07-17T08:12:32;24.50;42.80
40758;DHT22;26462;47.384;19.218;2022-07-17T08:15:16;24.30;42.50
40758;DHT22;26462;47.384;19.218;2022-07-17T08:17:45;24.30;42.90
40758;DHT22;26462;47.384;19.218;2022-07-17T08:20:14;24.50;42.50
40758;DHT22;26462;47.384;19.218;2022-07-17T08:22:43;24.70;42.40
40758;DHT22;26462;47.384;19.218;2022-07-17T08:25:30;24.40;42.10
40758;DHT22;26462;47.384;19.218;2022-07-17T08:27:58;24.90;44.10
40758;DHT22;26462;47.384;19.218;2022-07-17T08:30:25;24.60;42.00
40758;DHT22;26462;47.384;19.218;2022-07-17T08:32:52;24.70;42.80
40758;DHT22;26462;47.384;19.218;2022-07-17T08:35:19;24.50;41.30
40758;DHT22;26462;47.384;19.218;2022-07-17T08:37:50;24.80;42.10
40758;DHT22;26462;47.384;19.218;2022-07-17T08:40:22;24.90;42.00
40758;DHT22;26462;47.384;19.218;2022-07-17T08:42:50;25.10;42.60
40758;DHT22;26462;47.384;19.218;2022-07-17T08:45:17;25.10;41.80
40758;DHT22;26462;47.384;19.218;2022-07-17T08:47:44;24.80;41.50
40758;DHT22;26462;47.384;19.218;2022-07-17T08:50:13;25.00;43.30
40758;DHT22;26462;47.384;19.218;2022-07-17T08:52:42;25.10;43.30
40758;DHT22;26462;47.384;19.218;2022-07-17T08:55:11;24.90;41.90
40758;DHT22;26462;47.384;19.218;2022-07-17T08:57:40;25.00;42.40
40758;DHT22;26462;47.384;19.218;2022-07-17T09:00:15;25.00;42.70
40758;DHT22;26462;47.384;19.218;2022-07-17T09:03:03;25.10;42.90
40758;DHT22;26462;47.384;19.218;2022-07-17T09:05:35;25.30;42.90
40758;DHT22;26462;47.384;19.218;2022-07-17T09:08:03;25.20;42.80
40758;DHT22;26462;47.384;19.218;2022-07-17T09:10:51;25.00;42.40
40758;DHT22;26462;47.384;19.218;2022-07-17T09:13:25;25.00;42.50
40758;DHT22;26462;47.384;19.218;2022-07-17T09:15:57;24.70;42.00
40758;DHT22;26462;47.384;19.218;2022-07-17T09:18:25;25.10;43.70
40758;DHT22;26462;47.384;19.218;2022-07-17T09:20:55;25.20;42.90
40758;DHT22;26462;47.384;19.218;2022-07-17T09:23:25;25.00;42.10
40758;DHT22;26462;47.384;19.218;2022-07-17T09:25:54;25.10;42.80
40758;DHT22;26462;47.384;19.218;2022-07-17T09:28:23;25.40;42.90
40758;DHT22;26462;47.384;19.218;2022-07-17T09:30:53;25.20;42.50
40758;DHT22;26462;47.384;19.218;2022-07-17T09:33:23;25.00;41.90
40758;DHT22;26462;47.384;19.218;2022-07-17T09:35:53;24.70;41.90
40758;DHT22;26462;47.384;19.218;2022-07-17T09:38:33;24.90;42.10
40758;DHT22;26462;47.384;19.218;2022-07-17T09:41:02;25.20;42.70
40758;DHT22;26462;47.384;19.218;2022-07-17T09:43:50;25.20;42.00
40758;DHT22;26462;47.384;19.218;2022-07-17T09:46:22;25.10;41.80
40758;DHT22;26462;47.384;19.218;2022-07-17T09:49:01;25.10;41.30
40758;DHT22;26462;47.384;19.218;2022-07-17T09:51:39;25.30;41.60
40758;DHT22;26462;47.384;19.218;2022-07-17T09:54:08;25.40;41.50
40758;DHT22;26462;47.384;19.218;2022-07-17T09:56:37;25.10;41.30
40758;DHT22;26462;47.384;19.218;2022-07-17T09:59:06;25.10;42.30
40758;DHT22;26462;47.384;19.218;2022-07-17T10:01:35;25.10;41.30
40758;DHT22;26462;47.384;19.218;2022-07-17T10:04:03;25.20;42.10
40758;DHT22;26462;47.384;19.218;2022-07-17T10:06:31;25.30;42.60
40758;DHT22;26462;47.384;19.218;2022-07-17T10:09:00;25.60;42.60
40758;DHT22;26462;47.384;19.218;2022-07-17T10:11:30;25.60;41.40
40758;DHT22;26462;47.384;19.218;2022-07-17T10:14:03;25.50;41.80
40758;DHT22;26462;47.384;19.218;2022-07-17T10:16:34;25.30;41.20
40758;DHT22;26462;47.384;19.218;2022-07-17T10:19:02;25.30;41.10
40758;DHT22;26462;47.384;19.218;2022-07-17T10:21:31;25.70;42.30
40758;DHT22;26462;47.384;19.218;2022-07-17T10:29:32;25.40;40.00
40758;DHT22;26462;47.384;19.218;2022-07-17T10:31:57;25.70;41.40
40758;DHT22;26462;47.384;19.218;2022-07-17T10:34:45;25.60;40.20
40758;DHT22;26462;47.384;19.218;2022-07-17T10:45:19;25.40;40.60
40758;DHT22;26462;47.384;19.218;2022-07-17T10:50:36;25.50;39.90
40758;DHT22;26462;47.384;19.218;2022-07-17T10:55:31;25.30;39.70
40758;DHT22;26462;47.384;19.218;2022-07-17T10:57:58;25.30;40.10
40758;DHT22;26462;47.384;19.218;2022-07-17T11:00:26;25.50;40.80
40758;DHT22;26462;47.384;19.218;2022-07-17T11:02:53;25.40;40.40
40758;DHT22;26462;47.384;19.218;2022-07-17T11:05:21;25.40;40.40
40758;DHT22;26462;47.384;19.218;2022-07-17T11:07:57;25.50;40.80
40758;DHT22;26462;47.384;19.218;2022-07-17T11:10:27;25.40;40.40
40758;DHT22;26462;47.384;19.218;2022-07-17T11:13:10;25.50;40.80
40758;DHT22;26462;47.384;19.218;2022-07-17T11:15:46;25.60;41.00
40758;DHT22;26462;47.384;19.218;2022-07-17T11:18:19;25.80;41.80
40758;DHT22;26462;47.384;19.218;2022-07-17T11:20:49;25.80;41.40
40758;DHT22;26462;47.384;19.218;2022-07-17T11:23:16;25.80;41.40
40758;DHT22;26462;47.384;19.218;2022-07-17T11:25:55;25.70;41.00
40758;DHT22;26462;47.384;19.218;2022-07-17T11:31:04;25.90;40.40
40758;DHT22;26462;47.384;19.218;2022-07-17T11:33:31;25.80;40.60
40758;DHT22;26462;47.384;19.218;2022-07-17T11:35:58;25.80;40.50
40758;DHT22;26462;47.384;19.218;2022-07-17T11:38:28;25.90;40.10
40758;DHT22;26462;47.384;19.218;2022-07-17T11:40:56;25.90;39.90
40758;DHT22;26462;47.384;19.218;2022-07-17T11:43:28;25.60;39.90
40758;DHT22;26462;47.384;19.218;2022-07-17T11:45:55;25.70;40.00
40758;DHT22;26462;47.384;19.218;2022-07-17T11:48:22;25.90;41.80
40758;DHT22;26462;47.384;19.218;2022-07-17T11:50:54;26.20;41.20
40758;DHT22;26462;47.384;19.218;2022-07-17T11:53:30;26.30;41.00
40758;DHT22;26462;47.384;19.218;2022-07-17T11:55:57;26.20;40.70
40758;DHT22;26462;47.384;19.218;2022-07-17T11:58:25;26.10;40.10
40758;DHT22;26462;47.384;19.218;2022-07-17T12:01:03;26.30;40.00
40758;DHT22;26462;47.384;19.218;2022-07-17T12:03:31;26.20;39.60
40758;DHT22;26462;47.384;19.218;2022-07-17T12:05:58;26.30;39.90
40758;DHT22;26462;47.384;19.218;2022-07-17T12:08:25;26.30;39.20
40758;DHT22;26462;47.384;19.218;2022-07-17T12:11:04;26.10;39.10
40758;DHT22;26462;47.384;19.218;2022-07-17T12:16:27;26.20;39.60
40758;DHT22;26462;47.384;19.218;2022-07-17T12:19:01;26.40;39.80
40758;DHT22;26462;47.384;19.218;2022-07-17T12:21:32;26.50;39.60
40758;DHT22;26462;47.384;19.218;2022-07-17T12:24:04;26.60;39.20
40758;DHT22;26462;47.384;19.218;2022-07-17T12:26:32;26.40;39.20
40758;DHT22;26462;47.384;19.218;2022-07-17T12:29:00;26.40;38.20
40758;DHT22;26462;47.384;19.218;2022-07-17T12:31:27;26.40;39.30
40758;DHT22;26462;47.384;19.218;2022-07-17T12:33:55;26.30;38.20
40758;DHT22;26462;47.384;19.218;2022-07-17T12:36:23;26.40;37.70
40758;DHT22;26462;47.384;19.218;2022-07-17T12:38:51;26.40;37.50
40758;DHT22;26462;47.384;19.218;2022-07-17T12:41:18;26.40;36.80
40758;DHT22;26462;47.384;19.218;2022-07-17T12:43:45;26.20;36.80
40758;DHT22;26462;47.384;19.218;2022-07-17T12:46:13;26.30;36.70
40758;DHT22;26462;47.384;19.218;2022-07-17T12:48:52;26.40;36.80
40758;DHT22;26462;47.384;19.218;2022-07-17T12:51:20;26.40;37.30
40758;DHT22;26462;47.384;19.218;2022-07-17T12:53:47;26.50;36.90
40758;DHT22;26462;47.384;19.218;2022-07-17T12:56:14;26.50;37.80
40758;DHT22;26462;47.384;19.218;2022-07-17T12:58:41;26.70;39.50
40758;DHT22;26462;47.384;19.218;2022-07-17T13:01:08;26.80;38.30
40758;DHT22;26462;47.384;19.218;2022-07-17T13:03:37;26.80;38.10
40758;DHT22;26462;47.384;19.218;2022-07-17T13:06:04;26.80;37.20
40758;DHT22;26462;47.384;19.218;2022-07-17T13:08:31;26.70;36.30
40758;DHT22;26462;47.384;19.218;2022-07-17T13:10:59;26.80;37.00
40758;DHT22;26462;47.384;19.218;2022-07-17T13:13:27;26.70;37.10
40758;DHT22;26462;47.384;19.218;2022-07-17T13:15:56;26.70;36.90
40758;DHT22;26462;47.384;19.218;2022-07-17T13:18:23;26.70;36.90
40758;DHT22;26462;47.384;19.218;2022-07-17T13:20:50;26.80;37.50
40758;DHT22;26462;47.384;19.218;2022-07-17T13:23:18;27.00;38.30
40758;DHT22;26462;47.384;19.218;2022-07-17T13:25:45;26.90;37.80
40758;DHT22;26462;47.384;19.218;2022-07-17T13:28:12;26.90;37.20
40758;DHT22;26462;47.384;19.218;2022-07-17T13:30:39;27.00;36.80
40758;DHT22;26462;47.384;19.218;2022-07-17T13:33:07;27.10;36.50
40758;DHT22;26462;47.384;19.218;2022-07-17T13:35:34;27.10;36.60
40758;DHT22;26462;47.384;19.218;2022-07-17T13:38:02;27.00;35.20
40758;DHT22;26462;47.384;19.218;2022-07-17T13:40:30;27.00;36.70
40758;DHT22;26462;47.384;19.218;2022-07-17T13:42:59;26.90;35.70
40758;DHT22;26462;47.384;19.218;2022-07-17T13:45:27;27.00;35.90
40758;DHT22;26462;47.384;19.218;2022-07-17T13:47:54;26.90;35.90
40758;DHT22;26462;47.384;19.218;2022-07-17T13:50:22;27.00;36.50
40758;DHT22;26462;47.384;19.218;2022-07-17T13:52:49;27.10;36.30
40758;DHT22;26462;47.384;19.218;2022-07-17T13:55:17;27.00;35.90
40758;DHT22;26462;47.384;19.218;2022-07-17T13:58:04;27.10;36.30
40758;DHT22;26462;47.384;19.218;2022-07-17T14:00:32;27.00;35.80
40758;DHT22;26462;47.384;19.218;2022-07-17T14:02:59;27.10;36.90
40758;DHT22;26462;47.384;19.218;2022-07-17T14:05:26;27.20;34.70
40758;DHT22;26462;47.384;19.218;2022-07-17T14:07:53;27.00;34.60
40758;DHT22;26462;47.384;19.218;2022-07-17T14:10:21;27.00;35.10
40758;DHT22;26462;47.384;19.218;2022-07-17T14:12:48;27.00;34.60
40758;DHT22;26462;47.384;19.218;2022-07-17T14:15:15;27.00;34.90
40758;DHT22;26462;47.384;19.218;2022-07-17T14:17:42;26.90;34.70
40758;DHT22;26462;47.384;19.218;2022-07-17T14:20:09;26.90;34.40
40758;DHT22;26462;47.384;19.218;2022-07-17T14:22:37;27.00;35.60
40758;DHT22;26462;47.384;19.218;2022-07-17T14:25:04;27.00;34.70
40758;DHT22;26462;47.384;19.218;2022-07-17T14:27:31;27.10;36.00
40758;DHT22;26462;47.384;19.218;2022-07-17T14:29:59;27.20;35.20
40758;DHT22;26462;47.384;19.218;2022-07-17T14:32:25;27.00;34.40
40758;DHT22;26462;47.384;19.218;2022-07-17T14:34:53;26.90;35.00
40758;DHT22;26462;47.384;19.218;2022-07-17T14:37:20;26.90;35.30
40758;DHT22;26462;47.384;19.218;2022-07-17T14:39:49;27.00;35.20
40758;DHT22;26462;47.384;19.218;2022-07-17T14:42:16;27.00;35.10
40758;DHT22;26462;47.384;19.218;2022-07-17T14:44:43;26.90;35.70
40758;DHT22;26462;47.384;19.218;2022-07-17T14:47:11;26.90;35.50
40758;DHT22;26462;47.384;19.218;2022-07-17T14:49:38;26.70;35.00
40758;DHT22;26462;47.384;19.218;2022-07-17T14:52:05;26.80;36.00
40758;DHT22;26462;47.384;19.218;2022-07-17T14:54:32;26.90;34.70
40758;DHT22;26462;47.384;19.218;2022-07-17T14:57:00;26.80;35.40
40758;DHT22;26462;47.384;19.218;2022-07-17T14:59:27;26.80;35.80
40758;DHT22;26462;47.384;19.218;2022-07-17T15:01:54;26.80;35.40
40758;DHT22;26462;47.384;19.218;2022-07-17T15:04:21;26.80;35.50
40758;DHT22;26462;47.384;19.218;2022-07-17T15:06:50;26.80;34.20
40758;DHT22;26462;47.384;19.218;2022-07-17T15:09:18;26.70;34.00
40758;DHT22;26462;47.384;19.218;2022-07-17T15:11:46;26.60;34.60
40758;DHT22;26462;47.384;19.218;2022-07-17T15:14:13;26.60;34.10
40758;DHT22;26462;47.384;19.218;2022-07-17T15:16:40;26.60;34.60
40758;DHT22;26462;47.384;19.218;2022-07-17T15:19:07;26.70;34.00
40758;DHT22;26462;47.384;19.218;2022-07-17T15:21:34;26.60;34.20
40758;DHT22;26462;47.384;19.218;2022-07-17T15:24:19;26.70;34.70
40758;DHT22;26462;47.384;19.218;2022-07-17T15:26:47;26.60;34.70
40758;DHT22;26462;47.384;19.218;2022-07-17T15:29:15;26.60;35.10
40758;DHT22;26462;47.384;19.218;2022-07-17T15:31:43;26.60;33.80
40758;DHT22;26462;47.384;19.218;2022-07-17T15:34:11;26.50;34.40
40758;DHT22;26462;47.384;19.218;2022-07-17T15:36:38;26.40;34.10
40758;DHT22;26462;47.384;19.218;2022-07-17T15:39:05;26.30;34.60
40758;DHT22;26462;47.384;19.218;2022-07-17T15:41:34;26.40;34.50
40758;DHT22;26462;47.384;19.218;2022-07-17T15:44:02;26.40;34.60
40758;DHT22;26462;47.384;19.218;2022-07-17T15:46:29;26.40;35.00
40758;DHT22;26462;47.384;19.218;2022-07-17T15:48:58;26.40;33.90